createdAt,value
2018-03-18T00:00:40.230Z,15.27
2018-03-18T00:03:08.547Z,14.23
2018-03-18T00:05:36.110Z,14.57
2018-03-18T00:08:03.646Z,15.43
2018-03-18T00:10:31.955Z,14.95
2018-03-18T00:12:59.487Z,14.77
2018-03-18T00:15:27.030Z,14.68
2018-03-18T00:17:54.611Z,15.23
2018-03-18T00:20:22.123Z,15.13
2018-03-18T00:22:49.661Z,14.95
2018-03-18T00:25:17.981Z,15.30
2018-03-18T00:27:45.512Z,13.75
2018-03-18T00:30:13.846Z,15.27
2018-03-18T00:32:41.406Z,13.90
2018-03-18T00:35:08.954Z,14.40
2018-03-18T00:37:36.508Z,14.73
2018-03-18T00:40:04.053Z,13.32
2018-03-18T00:42:32.367Z,14.52
2018-03-18T00:44:59.913Z,13.85
2018-03-18T00:47:27.465Z,14.27
2018-03-18T00:49:55.774Z,15.18
2018-03-18T00:52:23.318Z,15.07
2018-03-18T00:54:51.649Z,14.32
2018-03-18T00:57:19.201Z,13.80
2018-03-18T00:59:46.729Z,14.52
2018-03-18T01:02:14.315Z,13.60
2018-03-18T01:04:41.855Z,14.45
2018-03-18T01:07:10.570Z,13.82
2018-03-18T01:09:38.099Z,13.57
2018-03-18T01:12:05.621Z,14.50
2018-03-18T01:14:33.207Z,14.90
2018-03-18T01:17:00.747Z,14.85
2018-03-18T01:19:28.302Z,15.02
2018-03-18T01:21:55.930Z,14.85
2018-03-18T01:24:23.467Z,14.60
2018-03-18T01:26:51.011Z,14.90
2018-03-18T01:29:18.556Z,14.32
2018-03-18T01:31:46.138Z,15.25
2018-03-18T01:34:13.742Z,15.63
2018-03-18T01:36:41.295Z,14.75
2018-03-18T01:39:08.889Z,15.70
2018-03-18T01:41:36.417Z,16.02
2018-03-18T01:44:04.751Z,16.60
2018-03-18T01:46:33.068Z,16.42
2018-03-18T01:49:00.589Z,15.75
2018-03-18T01:51:28.128Z,16.65
2018-03-18T01:53:55.678Z,17.73
2018-03-18T01:56:23.242Z,17.05
2018-03-18T01:58:50.779Z,17.95
2018-03-18T02:01:18.322Z,18.10
2018-03-18T02:03:46.629Z,18.60
2018-03-18T02:06:14.172Z,18.42
2018-03-18T02:08:42.508Z,18.15
2018-03-18T02:11:10.054Z,18.10
2018-03-18T02:13:37.600Z,19.12
2018-03-18T02:16:05.129Z,19.42
2018-03-18T02:18:32.667Z,18.75
2018-03-18T02:21:00.228Z,18.98
2018-03-18T02:23:27.766Z,18.83
2018-03-18T02:25:55.308Z,17.50
2018-03-18T02:28:23.610Z,19.92
2018-03-18T02:30:51.158Z,17.58
2018-03-18T02:33:19.565Z,18.77
2018-03-18T02:35:47.102Z,20.15
2018-03-18T02:38:15.424Z,18.33
2018-03-18T02:40:42.953Z,18.65
2018-03-18T02:43:11.265Z,18.85
2018-03-18T02:45:38.831Z,19.60
2018-03-18T02:48:06.378Z,19.12
2018-03-18T02:50:34.694Z,19.23
2018-03-18T02:53:02.257Z,19.20
2018-03-18T02:55:29.866Z,18.12
2018-03-18T02:57:57.427Z,19.65
2018-03-18T03:00:24.969Z,17.55
2018-03-18T03:02:53.277Z,17.50
2018-03-18T03:05:20.831Z,18.30
2018-03-18T03:07:48.362Z,18.25
2018-03-18T03:10:15.926Z,17.48
2018-03-18T03:12:43.479Z,18.05
2018-03-18T03:15:11.015Z,18.35
2018-03-18T03:17:38.555Z,18.20
2018-03-18T03:20:06.092Z,17.83
2018-03-18T03:22:33.736Z,18.12
2018-03-18T03:25:01.502Z,16.48
2018-03-18T03:27:29.046Z,16.92
2018-03-18T03:29:56.574Z,16.77
2018-03-18T03:32:24.880Z,16.95
2018-03-18T03:34:52.443Z,17.02
2018-03-18T03:37:20.057Z,15.52
2018-03-18T03:39:47.594Z,15.27
2018-03-18T03:42:15.129Z,16.27
2018-03-18T03:44:42.692Z,16.33
2018-03-18T03:47:10.246Z,14.65
2018-03-18T03:49:38.548Z,15.00
2018-03-18T03:52:06.090Z,15.13
2018-03-18T03:54:34.402Z,14.90
2018-03-18T03:57:01.944Z,16.62
2018-03-18T03:59:30.271Z,15.77
2018-03-18T04:01:57.814Z,15.63
2018-03-18T04:04:25.352Z,14.48
2018-03-18T04:06:53.669Z,14.85
2018-03-18T04:09:21.280Z,14.80
2018-03-18T04:11:48.840Z,16.02
2018-03-18T04:14:16.383Z,15.25
2018-03-18T04:16:43.918Z,14.70
2018-03-18T04:19:11.474Z,13.13
2018-03-18T04:21:39.783Z,13.90
2018-03-18T04:24:07.637Z,14.75
2018-03-18T04:26:35.182Z,14.70
2018-03-18T04:29:02.734Z,13.80
2018-03-18T04:31:30.275Z,13.88
2018-03-18T04:33:57.819Z,13.62
2018-03-18T04:36:25.393Z,13.27
2018-03-18T04:38:52.929Z,13.45
2018-03-18T04:41:20.468Z,14.05
2018-03-18T04:43:48.009Z,13.48
2018-03-18T04:46:15.592Z,12.77
2018-03-18T04:48:43.150Z,13.10
2018-03-18T04:51:10.681Z,13.45
2018-03-18T04:53:38.259Z,13.55
2018-03-18T04:56:06.569Z,14.65
2018-03-18T04:58:34.115Z,13.93
2018-03-18T05:01:01.669Z,14.32
2018-03-18T05:03:29.214Z,13.43
2018-03-18T05:05:56.743Z,12.13
2018-03-18T05:08:25.156Z,13.65
2018-03-18T05:10:52.692Z,13.50
2018-03-18T05:13:20.243Z,12.98
2018-03-18T05:15:47.796Z,14.65
2018-03-18T05:18:15.330Z,13.18
2018-03-18T05:20:42.863Z,12.88
2018-03-18T05:23:11.167Z,12.90
2018-03-18T05:25:38.720Z,12.88
2018-03-18T05:28:06.265Z,13.15
2018-03-18T05:30:33.801Z,13.70
2018-03-18T05:33:01.485Z,14.00
2018-03-18T05:35:29.011Z,14.52
2018-03-18T05:37:56.564Z,13.88
2018-03-18T05:40:24.160Z,13.75
2018-03-18T05:42:51.706Z,13.57
2018-03-18T05:45:19.251Z,14.68
2018-03-18T05:47:46.790Z,12.15
2018-03-18T05:50:15.410Z,12.73
2018-03-18T05:52:42.959Z,11.88
2018-03-18T05:55:11.264Z,13.93
2018-03-18T05:57:38.793Z,13.15
2018-03-18T06:00:06.324Z,13.70
2018-03-18T06:02:34.649Z,12.73
2018-03-18T06:05:02.971Z,13.80
2018-03-18T06:07:30.515Z,13.62
2018-03-18T06:09:58.061Z,13.25
2018-03-18T06:12:26.371Z,12.23
2018-03-18T06:14:53.928Z,13.90
2018-03-18T06:17:21.536Z,13.57
2018-03-18T06:19:49.049Z,13.15
2018-03-18T06:22:16.592Z,12.37
2018-03-18T06:24:44.197Z,12.95
2018-03-18T06:27:11.723Z,12.20
2018-03-18T06:29:39.272Z,13.15
2018-03-18T06:32:06.820Z,12.70
2018-03-18T06:34:34.377Z,12.95
2018-03-18T06:37:01.922Z,12.82
2018-03-18T06:39:29.490Z,12.32
2018-03-18T06:41:57.035Z,12.57
2018-03-18T06:44:25.339Z,13.30
2018-03-18T06:46:52.888Z,12.57
2018-03-18T06:49:21.199Z,12.77
2018-03-18T06:51:48.974Z,12.73
2018-03-18T06:54:16.526Z,12.70
2018-03-18T06:56:44.057Z,13.35
2018-03-18T06:59:12.411Z,13.57
2018-03-18T07:01:39.962Z,12.50
2018-03-18T07:04:07.532Z,12.18
2018-03-18T07:06:35.076Z,13.15
2018-03-18T07:09:02.629Z,12.73
2018-03-18T07:11:30.157Z,11.75
2018-03-18T07:13:57.686Z,12.37
2018-03-18T07:16:25.624Z,12.70
2018-03-18T07:18:53.173Z,12.77
2018-03-18T07:21:21.467Z,12.45
2018-03-18T07:23:49.014Z,11.52
2018-03-18T07:26:17.331Z,12.77
2018-03-18T07:28:44.899Z,12.02
2018-03-18T07:31:12.444Z,11.30
2018-03-18T07:33:39.998Z,12.05
2018-03-18T07:36:08.349Z,12.30
2018-03-18T07:38:36.680Z,12.00
2018-03-18T07:41:05.001Z,11.50
2018-03-18T07:43:32.550Z,12.43
2018-03-18T07:46:00.090Z,11.15
2018-03-18T07:48:27.750Z,11.90
2018-03-18T07:50:56.064Z,11.30
2018-03-18T07:53:23.667Z,11.85
2018-03-18T07:55:51.202Z,12.45
2018-03-18T07:58:18.739Z,12.18
2018-03-18T08:00:47.047Z,11.50
2018-03-18T08:03:14.597Z,10.98
2018-03-18T08:05:42.165Z,11.60
2018-03-18T08:08:09.704Z,11.57
2018-03-18T08:10:38.058Z,10.88
2018-03-18T08:13:05.597Z,12.02
2018-03-18T08:15:33.199Z,11.57
2018-03-18T08:18:00.822Z,12.57
2018-03-18T08:20:28.364Z,12.00
2018-03-18T08:22:56.656Z,12.75
2018-03-18T08:25:24.219Z,12.13
2018-03-18T08:27:51.777Z,11.43
2018-03-18T08:30:20.145Z,12.40
2018-03-18T08:32:47.684Z,11.30
2018-03-18T08:35:16.385Z,11.25
2018-03-18T08:37:46.611Z,12.10
2018-03-18T08:40:14.122Z,11.82
2018-03-18T08:42:41.685Z,11.10
2018-03-18T08:45:09.249Z,11.85
2018-03-18T08:47:36.867Z,11.98
2018-03-18T08:50:04.407Z,12.18
2018-03-18T08:52:32.060Z,11.63
2018-03-18T08:54:59.721Z,12.40
2018-03-18T08:57:27.254Z,12.40
2018-03-18T08:59:55.565Z,11.05
2018-03-18T09:02:23.106Z,11.85
2018-03-18T09:04:51.470Z,11.63
2018-03-18T09:07:19.035Z,11.63
2018-03-18T09:09:46.597Z,10.98
2018-03-18T09:12:14.140Z,10.98
2018-03-18T09:14:41.722Z,12.05
2018-03-18T09:17:09.253Z,11.60
2018-03-18T09:19:36.852Z,11.38
2018-03-18T09:22:04.486Z,11.40
2018-03-18T09:24:32.024Z,12.07
2018-03-18T09:27:00.329Z,10.65
2018-03-18T09:29:27.879Z,11.32
2018-03-18T09:31:56.250Z,9.75
2018-03-18T09:34:24.582Z,11.23
2018-03-18T09:36:52.120Z,11.12
2018-03-18T09:39:19.667Z,11.30
2018-03-18T09:41:48.223Z,12.40
2018-03-18T09:44:16.256Z,11.57
2018-03-18T09:46:43.812Z,11.18
2018-03-18T09:49:11.356Z,11.07
2018-03-18T09:51:39.693Z,11.35
2018-03-18T09:54:07.241Z,10.90
2018-03-18T09:56:34.810Z,11.45
2018-03-18T09:59:02.364Z,12.10
2018-03-18T10:01:29.903Z,10.48
2018-03-18T10:03:58.212Z,10.70
2018-03-18T10:06:25.757Z,10.98
2018-03-18T10:08:54.097Z,10.30
2018-03-18T10:11:21.677Z,11.25
2018-03-18T10:13:51.435Z,11.77
2018-03-18T10:16:19.119Z,11.00
2018-03-18T10:18:46.672Z,10.65
2018-03-18T10:21:14.261Z,10.57
2018-03-18T10:23:41.810Z,10.48
2018-03-18T10:26:09.364Z,11.50
2018-03-18T10:28:36.919Z,10.40
2018-03-18T10:31:05.234Z,11.32
2018-03-18T10:33:32.867Z,10.45
2018-03-18T10:36:01.199Z,11.35
2018-03-18T10:38:28.770Z,11.50
2018-03-18T10:40:56.319Z,11.25
2018-03-18T10:43:23.898Z,11.55
2018-03-18T10:45:51.463Z,10.52
2018-03-18T10:48:19.034Z,11.82
2018-03-18T10:50:46.588Z,11.57
2018-03-18T10:53:14.136Z,11.12
2018-03-18T10:55:41.703Z,11.50
2018-03-18T10:58:09.280Z,12.30
2018-03-18T11:00:42.345Z,11.63
2018-03-18T11:03:09.898Z,11.30
2018-03-18T11:05:38.224Z,11.70
2018-03-18T11:08:05.784Z,12.23
2018-03-18T11:10:33.344Z,11.80
2018-03-18T11:13:01.789Z,12.10
2018-03-18T11:15:29.383Z,11.50
2018-03-18T11:17:57.015Z,11.25
2018-03-18T11:20:24.576Z,12.45
2018-03-18T11:22:52.132Z,11.68
2018-03-18T11:25:19.662Z,11.85
2018-03-18T11:27:47.420Z,10.48
2018-03-18T11:30:14.992Z,10.93
2018-03-18T11:32:42.525Z,11.45
2018-03-18T11:35:10.836Z,11.48
2018-03-18T11:37:38.406Z,11.80
2018-03-18T11:40:05.979Z,11.35
2018-03-18T11:42:33.546Z,11.85
2018-03-18T11:45:01.100Z,9.75
2018-03-18T11:47:28.669Z,11.50
2018-03-18T11:49:56.270Z,11.73
2018-03-18T11:52:23.829Z,11.68
2018-03-18T11:54:51.385Z,10.27
2018-03-18T11:57:18.973Z,12.05
2018-03-18T11:59:46.525Z,11.48
2018-03-18T12:02:14.066Z,11.50
2018-03-18T12:04:41.662Z,11.60
2018-03-18T12:07:09.223Z,11.18
2018-03-18T12:09:36.826Z,10.45
2018-03-18T12:12:05.151Z,10.38
2018-03-18T12:14:32.710Z,11.20
2018-03-18T12:17:00.307Z,11.40
2018-03-18T12:19:27.892Z,11.30
2018-03-18T12:21:55.423Z,11.00
2018-03-18T12:24:22.987Z,10.85
2018-03-18T12:26:50.648Z,11.18
2018-03-18T12:29:18.232Z,10.85
2018-03-18T12:31:45.765Z,11.43
2018-03-18T12:34:13.346Z,10.73
2018-03-18T12:36:40.891Z,10.52
2018-03-18T12:39:08.681Z,11.38
2018-03-18T12:41:36.256Z,11.15
2018-03-18T12:44:03.836Z,10.48
2018-03-18T12:46:31.415Z,10.82
2018-03-18T12:48:58.966Z,11.00
2018-03-18T12:51:26.540Z,11.00
2018-03-18T12:53:54.083Z,11.55
2018-03-18T12:56:21.637Z,11.32
2018-03-18T12:58:49.238Z,11.82
2018-03-18T13:01:16.792Z,11.00
2018-03-18T13:03:44.362Z,11.12
2018-03-18T13:06:12.810Z,10.15
2018-03-18T13:08:40.371Z,11.40
2018-03-18T13:11:07.910Z,10.63
2018-03-18T13:13:35.460Z,9.95
2018-03-18T13:16:03.039Z,10.23
2018-03-18T13:18:31.348Z,11.12
2018-03-18T13:20:58.892Z,10.98
2018-03-18T13:23:27.233Z,11.73
2018-03-18T13:25:54.794Z,12.25
2018-03-18T13:28:22.355Z,10.73
2018-03-18T13:30:49.914Z,11.48
2018-03-18T13:33:17.468Z,12.30
2018-03-18T13:35:45.039Z,11.23
2018-03-18T13:38:12.577Z,12.43
2018-03-18T13:40:40.919Z,10.88
2018-03-18T13:43:08.487Z,10.63
2018-03-18T13:45:36.068Z,11.85
2018-03-18T13:48:03.624Z,11.30
2018-03-18T13:50:31.187Z,11.82
2018-03-18T13:52:58.831Z,11.02
2018-03-18T13:55:26.385Z,11.30
2018-03-18T13:57:53.935Z,10.93
2018-03-18T14:00:21.588Z,12.02
2018-03-18T14:02:49.913Z,11.95
2018-03-18T14:05:17.482Z,11.75
2018-03-18T14:07:45.055Z,12.68
2018-03-18T14:10:12.627Z,12.13
2018-03-18T14:12:40.164Z,13.43
2018-03-18T14:15:07.733Z,11.43
2018-03-18T14:17:35.595Z,10.75
2018-03-18T14:20:03.160Z,11.05
2018-03-18T14:22:31.453Z,12.65
2018-03-18T14:24:59.007Z,10.70
2018-03-18T14:27:26.579Z,11.30
2018-03-18T14:29:54.193Z,11.27
2018-03-18T14:32:21.749Z,12.30
2018-03-18T14:34:49.299Z,12.02
2018-03-18T14:37:16.842Z,12.05
2018-03-18T14:39:44.415Z,11.50
2018-03-18T14:42:12.368Z,12.00
2018-03-18T14:44:39.915Z,11.65
2018-03-18T14:47:08.241Z,12.10
2018-03-18T14:49:35.791Z,10.38
2018-03-18T14:52:03.354Z,11.90
2018-03-18T14:54:31.001Z,11.23
2018-03-18T14:56:59.315Z,11.82
2018-03-18T14:59:26.864Z,11.85
2018-03-18T15:01:54.423Z,10.75
2018-03-18T15:04:22.825Z,12.02
2018-03-18T15:06:50.385Z,11.40
2018-03-18T15:09:17.949Z,11.35
2018-03-18T15:11:45.499Z,10.88
2018-03-18T15:14:13.846Z,11.60
2018-03-18T15:16:41.399Z,11.68
2018-03-18T15:19:09.029Z,10.57
2018-03-18T15:21:36.640Z,11.23
2018-03-18T15:24:04.295Z,10.63
2018-03-18T15:26:31.992Z,12.00
2018-03-18T15:28:59.562Z,10.90
2018-03-18T15:31:27.175Z,10.82
2018-03-18T15:33:54.867Z,9.50
2018-03-18T15:36:22.416Z,11.25
2018-03-18T15:38:49.990Z,10.70
2018-03-18T15:41:17.569Z,10.63
2018-03-18T15:43:45.147Z,10.55
2018-03-18T15:46:12.699Z,10.82
2018-03-18T15:48:40.280Z,11.40
2018-03-18T15:51:07.912Z,11.07
2018-03-18T15:53:35.571Z,10.93
2018-03-18T15:56:03.197Z,11.05
2018-03-18T15:58:30.758Z,10.35
2018-03-18T16:00:58.329Z,10.43
2018-03-18T16:03:26.961Z,11.48
2018-03-18T16:05:54.517Z,10.90
2018-03-18T16:08:23.232Z,11.48
2018-03-18T16:10:50.792Z,11.55
2018-03-18T16:13:18.354Z,10.63
2018-03-18T16:15:45.968Z,10.40
2018-03-18T16:18:13.509Z,10.98
2018-03-18T16:20:41.858Z,9.68
2018-03-18T16:23:09.413Z,11.18
2018-03-18T16:25:37.747Z,10.13
2018-03-18T16:28:05.303Z,10.50
2018-03-18T16:30:45.572Z,10.30
2018-03-18T16:33:13.149Z,10.88
2018-03-18T16:35:40.726Z,10.13
2018-03-18T16:38:08.538Z,10.20
2018-03-18T16:40:36.088Z,9.82
2018-03-18T16:43:04.487Z,9.88
2018-03-18T16:45:32.048Z,10.07
2018-03-18T16:47:59.597Z,10.13
2018-03-18T16:50:28.056Z,10.00
2018-03-18T16:52:56.295Z,10.95
2018-03-18T16:55:23.886Z,10.23
2018-03-18T16:57:51.496Z,10.23
2018-03-18T17:00:19.853Z,10.43
2018-03-18T17:02:47.495Z,10.20
2018-03-18T17:05:15.056Z,10.05
2018-03-18T17:07:43.596Z,10.40
2018-03-18T17:10:11.367Z,10.07
2018-03-18T17:12:38.928Z,10.13
2018-03-18T17:15:06.562Z,10.02
2018-03-18T17:17:34.165Z,10.80
2018-03-18T17:20:01.784Z,10.18
2018-03-18T17:22:29.433Z,10.52
2018-03-18T17:24:57.015Z,9.88
2018-03-18T17:27:24.696Z,10.00
2018-03-18T17:29:52.538Z,10.20
2018-03-18T17:32:20.098Z,10.18
2018-03-18T17:34:48.819Z,9.80
2018-03-18T17:37:16.404Z,9.90
2018-03-18T17:39:44.080Z,9.68
2018-03-18T17:42:11.662Z,9.38
2018-03-18T17:44:51.924Z,10.57
2018-03-18T17:47:31.336Z,9.80
2018-03-18T17:50:10.699Z,9.75
2018-03-18T17:52:50.850Z,10.38
2018-03-18T17:55:25.934Z,9.48
2018-03-18T17:57:53.619Z,9.48
2018-03-18T18:00:21.713Z,9.88
2018-03-18T18:02:49.926Z,9.18
2018-03-18T18:05:17.684Z,9.68
2018-03-18T18:07:47.354Z,17.62
2018-03-18T18:10:16.164Z,20.77
2018-03-18T18:12:45.672Z,17.25
2018-03-18T18:15:13.646Z,10.63
2018-03-18T18:17:44.718Z,10.60
2018-03-18T18:20:13.337Z,10.18
2018-03-18T18:22:41.064Z,9.25
2018-03-18T18:25:08.708Z,10.48
2018-03-18T18:27:36.327Z,10.02
2018-03-18T18:30:05.021Z,9.57
2018-03-18T18:32:32.732Z,9.38
2018-03-18T18:35:00.519Z,9.88
2018-03-18T18:37:28.776Z,10.15
2018-03-18T18:39:56.564Z,9.43
2018-03-18T18:42:24.282Z,9.55
2018-03-18T18:44:52.095Z,9.82
2018-03-18T18:47:19.692Z,10.48
2018-03-18T18:49:47.281Z,9.98
2018-03-18T18:52:15.720Z,9.95
2018-03-18T18:54:43.419Z,10.05
2018-03-18T18:57:11.117Z,9.90
2018-03-18T18:59:38.840Z,10.00
2018-03-18T19:02:06.426Z,10.00
2018-03-18T19:04:34.124Z,9.98
2018-03-18T19:07:01.751Z,10.23
2018-03-18T19:09:29.364Z,10.25
2018-03-18T19:11:56.934Z,9.98
2018-03-18T19:14:24.571Z,9.77
2018-03-18T19:16:52.963Z,10.02
2018-03-18T19:19:21.369Z,10.32
2018-03-18T19:21:49.127Z,9.50
2018-03-18T19:24:18.395Z,10.35
2018-03-18T19:26:46.349Z,9.57
2018-03-18T19:29:13.935Z,10.18
2018-03-18T19:31:41.621Z,10.00
2018-03-18T19:34:10.761Z,9.93
2018-03-18T19:36:38.406Z,9.23
2018-03-18T19:39:05.981Z,10.32
2018-03-18T19:41:33.602Z,9.55
2018-03-18T19:44:01.263Z,9.00
2018-03-18T19:46:28.909Z,9.68
2018-03-18T19:48:56.560Z,9.93
2018-03-18T19:51:24.187Z,9.95
2018-03-18T19:53:52.684Z,10.20
2018-03-18T19:56:21.402Z,9.30
2018-03-18T19:58:49.229Z,9.27
2018-03-18T20:01:17.165Z,9.23
2018-03-18T20:03:45.011Z,9.95
2018-03-18T20:06:13.445Z,10.10
2018-03-18T20:08:42.001Z,9.48
2018-03-18T20:11:09.769Z,10.13
2018-03-18T20:13:37.483Z,9.35
2018-03-18T20:16:05.208Z,9.75
2018-03-18T20:18:32.871Z,9.07
2018-03-18T20:21:00.591Z,9.70
2018-03-18T20:23:28.321Z,9.38
2018-03-18T20:25:56.187Z,9.43
2018-03-18T20:28:23.874Z,9.43
2018-03-18T20:30:51.632Z,9.80
2018-03-18T20:33:19.307Z,9.25
2018-03-18T20:35:47.028Z,9.52
2018-03-18T20:38:15.457Z,9.52
2018-03-18T20:40:43.043Z,8.95
2018-03-18T20:43:11.474Z,9.07
2018-03-18T20:45:39.821Z,9.25
2018-03-18T20:48:07.451Z,9.50
2018-03-18T20:50:35.103Z,9.82
2018-03-18T20:53:02.726Z,9.35
2018-03-18T20:55:30.319Z,9.55
2018-03-18T20:57:58.688Z,9.10
2018-03-18T21:00:26.308Z,9.55
2018-03-18T21:02:53.883Z,9.15
2018-03-18T21:05:21.448Z,9.20
2018-03-18T21:07:49.033Z,9.10
2018-03-18T21:10:16.615Z,9.23
2018-03-18T21:12:44.566Z,8.90
2018-03-18T21:15:12.141Z,8.80
2018-03-18T21:17:39.708Z,8.88
2018-03-18T21:20:07.359Z,8.65
2018-03-18T21:22:35.744Z,9.27
2018-03-18T21:25:03.327Z,8.75
2018-03-18T21:27:30.887Z,9.32
2018-03-18T21:29:58.525Z,9.30
2018-03-18T21:32:26.077Z,8.93
2018-03-18T21:34:53.616Z,8.73
2018-03-18T21:37:22.439Z,9.32
2018-03-18T21:39:50.073Z,8.80
2018-03-18T21:42:17.626Z,9.57
2018-03-18T21:44:45.160Z,8.52
2018-03-18T21:47:12.707Z,9.13
2018-03-18T21:49:40.278Z,9.30
2018-03-18T21:52:07.832Z,9.43
2018-03-18T21:54:35.396Z,8.85
2018-03-18T21:57:02.966Z,9.32
2018-03-18T21:59:30.512Z,9.30
2018-03-18T22:01:58.869Z,9.00
2018-03-18T22:04:26.416Z,8.88
2018-03-18T22:06:53.954Z,9.25
2018-03-18T22:09:21.595Z,9.15
2018-03-18T22:11:49.898Z,9.48
2018-03-18T22:14:17.458Z,9.20
2018-03-18T22:16:44.999Z,8.90
2018-03-18T22:19:13.308Z,9.07
2018-03-18T22:21:40.870Z,8.85
2018-03-18T22:24:08.490Z,9.52
2018-03-18T22:26:36.062Z,9.30
2018-03-18T22:29:03.674Z,9.20
2018-03-18T22:31:31.191Z,9.00
2018-03-18T22:33:58.729Z,9.55
2018-03-18T22:36:26.422Z,8.98
2018-03-18T22:38:54.034Z,9.35
2018-03-18T22:41:21.570Z,8.80
2018-03-18T22:43:49.114Z,8.20
2018-03-18T22:46:16.687Z,8.77
2018-03-18T22:48:44.243Z,9.20
2018-03-18T22:51:12.068Z,9.45
2018-03-18T22:53:39.599Z,8.65
2018-03-18T22:56:07.140Z,8.85
2018-03-18T22:58:35.458Z,8.93
2018-03-18T23:01:03.774Z,9.70
2018-03-18T23:03:31.632Z,9.68
2018-03-18T23:05:59.159Z,9.60
2018-03-18T23:08:26.780Z,9.07
2018-03-18T23:10:54.336Z,8.50
2018-03-18T23:13:21.904Z,9.65
2018-03-18T23:15:49.529Z,9.40
2018-03-18T23:18:17.083Z,9.68
2018-03-18T23:20:44.634Z,9.73
2018-03-18T23:23:12.177Z,9.05
2018-03-18T23:25:39.739Z,8.75
2018-03-18T23:28:08.848Z,9.27
2018-03-18T23:30:36.432Z,9.85
2018-03-18T23:33:03.993Z,9.18
2018-03-18T23:35:31.582Z,9.23
2018-03-18T23:37:59.140Z,8.40
2018-03-18T23:40:26.705Z,9.70
2018-03-18T23:42:54.382Z,10.13
2018-03-18T23:45:21.928Z,9.40
2018-03-18T23:47:49.523Z,9.77
2018-03-18T23:50:17.832Z,10.30
2018-03-18T23:52:45.462Z,9.13
2018-03-18T23:55:13.011Z,9.90
2018-03-18T23:57:40.576Z,8.82
